ADDS METAR Data INFO
IDs: Format: Raw Decoded Include TAF

Data at: 0443 UTC 24 Apr 2018

KPEZ 240435Z AUTO 17003KT 10SM CLR 19/11 A3004 RMK AO2 T01930112
KPEZ 240415Z AUTO 16004KT 10SM CLR 20/11 A3004 RMK AO2 T02010112
KPEZ 240355Z AUTO 13004KT 10SM CLR 19/12 A3004 RMK AO2 T01900115
KPEZ 240335Z AUTO 09004KT 10SM CLR 20/11 A3003 RMK AO2 T01970111
KPEZ 240315Z AUTO 12003KT 10SM CLR 21/11 A3003 RMK AO2 T02060110
KPEZ 240255Z AUTO 11003KT 10SM CLR 21/11 A3002 RMK AO2 T02140107
KPEZ 240235Z AUTO 00000KT 10SM CLR 22/11 A3001 RMK AO2 T02220105
KPEZ 240215Z AUTO 00000KT 10SM CLR 22/10 A3000 RMK AO2 T02220103
KPEZ 240155Z AUTO 13003KT 10SM CLR 23/10 A2999 RMK AO2 T02320098
KPEZ 240135Z AUTO 12003KT 10SM CLR 23/10 A2999 RMK AO2 T02330098
KPEZ 240115Z AUTO 00000KT 10SM CLR 24/10 A2998 RMK AO2 T02420095
KPEZ 240055Z AUTO 13003KT 10SM CLR 26/09 A2998 RMK AO2 T02600090
KPEZ 240035Z AUTO 12003KT 10SM CLR 27/09 A2998 RMK AO2 T02670092
KPEZ 240015Z AUTO 10004KT 10SM CLR 28/10 A2997 RMK AO2 T02780096
KPEZ 232355Z AUTO 00000KT 10SM CLR 28/09 A2997 RMK AO2 T02820092 10295 20248
KPEZ 232335Z AUTO 00000KT 10SM CLR 29/09 A2997 RMK AO2 T02850086
KPEZ 232315Z AUTO 09003KT 10SM CLR 29/09 A2998 RMK AO2 T02870085
KPEZ 232255Z AUTO 06003KT 10SM CLR 29/09 A2998 RMK AO2 T02910089
KPEZ 232235Z AUTO 00000KT 10SM CLR 29/08 A2998 RMK AO2 T02870081
KPEZ 232215Z AUTO 00000KT 10SM CLR 29/09 A2999 RMK AO2 T02880086
KPEZ 232155Z AUTO 17003KT 10SM CLR 29/09 A3000 RMK AO2 T02900091
KPEZ 232135Z AUTO 10004KT 10SM CLR 29/09 A3001 RMK AO2 T02900088
KPEZ 232115Z AUTO 00000KT 10SM CLR 28/08 A3002 RMK AO2 T02830084
KPEZ 232055Z AUTO 00000KT 10SM CLR 28/09 A3003 RMK AO2 T02830086
KPEZ 232035Z AUTO 05003KT 10SM CLR 28/08 A3004 RMK AO2 T02770082
KPEZ 232015Z AUTO 17004KT 10SM CLR 28/09 A3005 RMK AO2 T02780088
KPEZ 231955Z AUTO 00000KT 10SM CLR 27/09 A3006 RMK AO2 T02730085
KPEZ 231935Z AUTO 00000KT 10SM CLR 27/08 A3007 RMK AO2 T02660083
KPEZ 231915Z AUTO 00000KT 10SM CLR 26/08 A3008 RMK AO2 T02640079
KPEZ 231855Z AUTO 15004KT 10SM CLR 26/08 A3009 RMK AO2 T02600084
KPEZ 231835Z AUTO 00000KT 10SM CLR 26/08 A3010 RMK AO2 T02570082
KPEZ 231815Z AUTO 08003KT 10SM CLR 26/08 A3011 RMK AO2 T02580084
KPEZ 231755Z AUTO 17004KT 10SM CLR 25/08 A3012 RMK AO2 T02500084 10251 20105
KPEZ 231735Z AUTO 04003KT 10SM CLR 25/08 A3013 RMK AO2 T02480079
KPEZ 231715Z AUTO 00000KT 10SM CLR 24/08 A3013 RMK AO2 T02400075
KPEZ 231655Z AUTO 09006KT 10SM CLR 24/08 A3014 RMK AO2 T02380079
KPEZ 231635Z AUTO 09005KT 10SM CLR 23/08 A3014 RMK AO2 T02320080
KPEZ 231615Z AUTO 08005KT 10SM CLR 23/08 A3015 RMK AO2 T02250084
KPEZ 231555Z AUTO 08004KT 10SM CLR 22/09 A3015 RMK AO2 T02210085
KPEZ 231535Z AUTO 10004KT 10SM CLR 21/08 A3015 RMK AO2 T02140083
KPEZ 231515Z AUTO 10004KT 10SM CLR 21/09 A3015 RMK AO2 T02050090
KPEZ 231455Z AUTO 00000KT 10SM CLR 19/11 A3014 RMK AO2 T01910109
KPEZ 231435Z AUTO 08003KT 10SM CLR 18/11 A3014 RMK AO2 T01770112
KPEZ 231415Z AUTO 00000KT 10SM CLR 16/12 A3014 RMK AO2 T01560116
KPEZ 231355Z AUTO 00000KT 10SM CLR 15/12 A3014 RMK AO2 T01510117
KPEZ 231335Z AUTO 05003KT 10SM CLR 14/12 A3013 RMK AO2 T01440121
KPEZ 231315Z AUTO 00000KT 10SM CLR 14/12 A3013 RMK AO2 T01370121
KPEZ 231255Z AUTO 00000KT 10SM CLR 12/12 A3012 RMK AO2 T01210117
KPEZ 231235Z AUTO 00000KT 10SM CLR 11/11 A3012 RMK AO2 T01130113
KPEZ 231215Z AUTO 00000KT 10SM CLR 11/10 A3011 RMK AO2 T01050099
KPEZ 231155Z AUTO 00000KT 10SM CLR 11/11 A3011 RMK AO2 T01110107 10170 20106
KPEZ 231135Z AUTO 00000KT 10SM CLR 11/10 A3009 RMK AO2 T01080099
KPEZ 231115Z AUTO 00000KT 10SM CLR 12/11 A3009 RMK AO2 T01200110
KPEZ 231055Z AUTO 00000KT 10SM CLR 13/11 A3009 RMK AO2 T01290111
KPEZ 231035Z AUTO 00000KT 10SM CLR 13/11 A3006 RMK AO2 T01300111
KPEZ 231015Z AUTO 06003KT 10SM CLR 13/11 A3006 RMK AO2 T01310111
KPEZ 230955Z AUTO 06004KT 10SM CLR 13/11 A3005 RMK AO2 T01300112
KPEZ 230935Z AUTO 05004KT 10SM CLR 14/12 A3005 RMK AO2 T01350115
KPEZ 230915Z AUTO 07004KT 10SM CLR 13/11 A3004 RMK AO2 T01320113
KPEZ 230855Z AUTO 00000KT 10SM CLR 14/12 A3005 RMK AO2 T01380115
KPEZ 230835Z AUTO 06003KT 10SM CLR 14/11 A3004 RMK AO2 T01370113
KPEZ 230815Z AUTO 06003KT 10SM CLR 14/12 A3004 RMK AO2 T01410115
KPEZ 230755Z AUTO 00000KT 10SM CLR 15/12 A3005 RMK AO2 T01480115
KPEZ 230735Z AUTO 00000KT 10SM CLR 15/12 A3005 RMK AO2 T01470115
KPEZ 230715Z AUTO 07003KT 10SM CLR 15/12 A3006 RMK AO2 T01540115
KPEZ 230655Z AUTO 08003KT 10SM CLR 16/12 A3006 RMK AO2 T01600116
KPEZ 230635Z AUTO 09003KT 10SM CLR 16/12 A3006 RMK AO2 T01640116
KPEZ 230615Z AUTO 09003KT 10SM CLR 17/12 A3006 RMK AO2 T01660116
KPEZ 230555Z AUTO 09003KT 10SM CLR 17/12 A3005 RMK AO2 T01700117 10249 20170 402670122
KPEZ 230535Z AUTO 09004KT 10SM CLR 18/12 A3005 RMK AO2 T01760117
KPEZ 230515Z AUTO 09004KT 10SM CLR 18/12 A3005 RMK AO2 T01790119
KPEZ 230455Z AUTO 08003KT 10SM CLR 18/12 A3005 RMK AO2 T01800120
KPEZ 230435Z AUTO 00000KT 10SM CLR 18/12 A3006 RMK AO2 T01830121
KPEZ 230415Z AUTO 13003KT 10SM CLR 19/12 A3005 RMK AO2 T01870120
KPEZ 230355Z AUTO 11004KT 10SM CLR 19/12 A3005 RMK AO2 T01870120
KPEZ 230335Z AUTO 11003KT 10SM CLR 19/12 A3004 RMK AO2 T01900119
KPEZ 230315Z AUTO 12004KT 10SM CLR 19/12 A3004 RMK AO2 T01920116
KPEZ 230255Z AUTO 12003KT 10SM CLR 20/11 A3003 RMK AO2 T01950113
KPEZ 230235Z AUTO 11005KT 10SM CLR 20/11 A3002 RMK AO2 T01990107
KPEZ 230215Z AUTO 13003KT 10SM CLR 20/11 A3002 RMK AO2 T01980107
KPEZ 230155Z AUTO 13003KT 10SM CLR 21/11 A3002 RMK AO2 T02060105
KPEZ 230135Z AUTO 13003KT 10SM CLR 22/10 A3001 RMK AO2 T02170101
KPEZ 230115Z AUTO 12003KT 10SM CLR 22/10 A3001 RMK AO2 T02180103
KPEZ 230055Z AUTO 15003KT 10SM CLR 23/09 A3000 RMK AO2 T02270091
KPEZ 230035Z AUTO 12003KT 10SM CLR 24/10 A2999 RMK AO2 T02350099
KPEZ 230015Z AUTO 11004KT 10SM CLR 24/09 A2999 RMK AO2 T02420092
KPEZ 222355Z AUTO 00000KT 10SM CLR 25/08 A2999 RMK AO2 T02500083 10267 20223
KPEZ 222335Z AUTO 00000KT 10SM CLR 25/07 A3000 RMK AO2 T02500073
KPEZ 222315Z AUTO 06006KT 10SM CLR 26/08 A2998 RMK AO2 T02590077
KPEZ 222255Z AUTO 05007KT 10SM CLR 26/08 A2999 RMK AO2 T02640077
KPEZ 222235Z AUTO 03006KT 10SM CLR 26/08 A2998 RMK AO2 T02610078
KPEZ 222215Z AUTO 07006KT 10SM CLR 26/08 A2999 RMK AO2 T02640081
KPEZ 222155Z AUTO 05005KT 10SM CLR 26/08 A2999 RMK AO2 T02600076
KPEZ 222135Z AUTO 02004KT 10SM CLR 26/07 A3000 RMK AO2 T02580072
KPEZ 222115Z AUTO 02004KT 10SM CLR 26/08 A3001 RMK AO2 T02580076
KPEZ 222055Z AUTO 07006KT 10SM CLR 26/08 A3003 RMK AO2 T02580082
KPEZ 222035Z AUTO 03007KT 10SM CLR 26/08 A3004 RMK AO2 T02550082
KPEZ 222015Z AUTO 33004KT 10SM CLR 25/08 A3005 RMK AO2 T02480079
KPEZ 221955Z AUTO 35005KT 10SM CLR 25/08 A3006 RMK AO2 T02450080
KPEZ 221935Z AUTO 02007KT 10SM CLR 24/08 A3007 RMK AO2 T02400083
KPEZ 221915Z AUTO 04005KT 10SM CLR 24/09 A3008 RMK AO2 T02370085
KPEZ 221855Z AUTO 03006KT 10SM CLR 23/08 A3009 RMK AO2 T02300083
KPEZ 221835Z AUTO 01009KT 320V020 10SM CLR 23/08 A3010 RMK AO2 T02270084
KPEZ 221815Z AUTO 06005KT 10SM CLR 22/09 A3010 RMK AO2 T02240086
KPEZ 221755Z AUTO 36008KT 360V060 10SM CLR 22/09 A3012 RMK AO2 T02230092 10223 20122
KPEZ 221735Z AUTO 05009KT 10SM CLR 22/09 A3013 RMK AO2 T02160090
KPEZ 221715Z AUTO 01009G15KT 10SM CLR 21/09 A3014 RMK AO2 T02100089
KPEZ 221655Z AUTO 01008G14KT 10SM CLR 21/09 A3013 RMK AO2 T02050092